Time;durP1;ratioP1;P1;durP2;ratioP2;P2;SDS_P1;SDS_P2;PMS_P1;PMS_P2;Temp;Humidity;BMP_temperature;BMP_pressure;BME280_temperature;BME280_humidity;BME280_pressure;Samples;Min_cycle;Max_cycle;Signal;HPM_P1;HPM_P2
2023/08/06 00:00:09;;;;;;;7.97;2.75;;;;;;;15.67;91.27;99649.28;4812884;29;20037;-81
2023/08/06 00:03:12;;;;;;;6.82;2.50;;;;;;;15.62;91.93;99654.09;4820911;29;20425;-80
2023/08/06 00:06:16;;;;;;;9.48;2.40;;;;;;;15.59;91.98;99650.75;4824105;29;20061;-81
2023/08/06 00:09:19;;;;;;;6.13;2.80;;;;;;;15.59;92.51;99647.28;4823160;29;20045;-81
2023/08/06 00:12:22;;;;;;;4.93;2.65;;;;;;;15.69;93.28;99634.16;4823443;29;20074;-81
2023/08/06 00:15:26;;;;;;;7.93;2.72;;;;;;;15.73;93.16;99622.38;4819303;29;20188;-82
2023/08/06 00:18:29;;;;;;;5.72;2.70;;;;;;;15.72;93.09;99620.72;4823909;29;20550;-81
2023/08/06 00:21:32;;;;;;;4.47;2.55;;;;;;;15.72;93.47;99615.44;4819808;29;20073;-82
2023/08/06 00:24:36;;;;;;;4.45;2.55;;;;;;;15.71;93.41;99604.06;4820605;29;20540;-81
2023/08/06 00:27:39;;;;;;;4.68;2.35;;;;;;;15.71;93.19;99603.25;4821798;29;20061;-81
2023/08/06 00:30:43;;;;;;;5.90;2.92;;;;;;;15.65;93.79;99595.84;4811642;29;20069;-81
2023/08/06 00:33:46;;;;;;;6.15;2.72;;;;;;;15.66;93.58;99603.59;4821363;29;20187;-81
2023/08/06 00:36:49;;;;;;;4.63;2.75;;;;;;;15.57;93.92;99605.25;4811895;29;20095;-82
2023/08/06 00:39:52;;;;;;;3.80;2.33;;;;;;;15.58;93.87;99590.28;4828242;29;20091;-81
2023/08/06 00:42:56;;;;;;;6.28;2.60;;;;;;;15.58;93.50;99590.28;4839254;29;20464;-79
2023/08/06 00:46:00;;;;;;;8.68;2.55;;;;;;;15.44;94.09;99588.84;4828818;29;20555;-80
2023/08/06 00:49:05;;;;;;;5.70;2.30;;;;;;;15.48;93.46;99585.00;4841228;29;20669;-80
2023/08/06 00:52:08;;;;;;;6.45;2.75;;;;;;;15.47;93.04;99580.66;4825980;29;20134;-80
2023/08/06 00:55:14;;;;;;;5.00;2.30;;;;;;;15.46;93.17;99578.19;4841545;29;20423;-81
2023/08/06 00:58:18;;;;;;;4.10;2.47;;;;;;;15.40;93.27;99571.63;4828611;29;20507;-80
2023/08/06 01:01:22;;;;;;;7.32;2.60;;;;;;;15.29;93.24;99569.97;4829369;29;20044;-80
2023/08/06 01:04:25;;;;;;;6.07;2.50;;;;;;;15.31;93.43;99567.16;4830126;29;20049;-80
2023/08/06 01:08:11;;;;;;;5.93;1.70;;;;;;;15.29;93.04;99569.97;4839667;29;20053;-80
2023/08/06 01:11:44;;;;;;;5.80;2.60;;;;;;;15.31;93.03;99564.53;4840101;29;20045;-79
2023/08/06 01:15:05;;;;;;;3.63;2.08;;;;;;;15.26;92.93;99572.03;4825598;29;20129;-79
2023/08/06 01:18:10;;;;;;;4.97;2.30;;;;;;;15.24;93.03;99573.94;4841638;29;20060;-80
2023/08/06 01:21:13;;;;;;;5.30;1.75;;;;;;;15.20;92.77;99580.47;4826995;29;20049;-80
2023/08/06 01:24:17;;;;;;;6.57;2.15;;;;;;;15.19;93.21;99573.50;4827644;29;20044;-80
2023/08/06 01:27:36;;;;;;;4.80;2.10;;;;;;;15.17;93.47;99571.00;4840765;29;20092;-80
2023/08/06 01:30:42;;;;;;;9.27;3.03;;;;;;;15.18;93.64;99577.09;4839928;29;20052;-80
2023/08/06 01:33:48;;;;;;;7.40;2.35;;;;;;;15.21;93.86;99576.84;4841742;29;20421;-81
2023/08/06 01:36:52;;;;;;;7.03;2.03;;;;;;;15.20;93.56;99573.38;4841253;29;20115;-82
2023/08/06 01:39:56;;;;;;;4.25;2.35;;;;;;;15.22;93.86;99578.50;4841147;29;20088;-82
2023/08/06 01:42:59;;;;;;;6.78;2.10;;;;;;;15.22;93.93;99570.59;4840955;29;20469;-82
2023/08/06 01:46:03;;;;;;;7.10;2.65;;;;;;;15.17;94.21;99576.28;4830259;29;20061;-82
2023/08/06 01:49:06;;;;;;;8.18;2.67;;;;;;;15.23;94.19;99569.66;4844168;29;20183;-82
2023/08/06 01:52:09;;;;;;;5.32;2.40;;;;;;;15.25;94.39;99573.84;4833711;29;20519;-81
2023/08/06 01:55:13;;;;;;;3.53;1.98;;;;;;;15.27;94.14;99571.88;4832858;29;20440;-81
2023/08/06 01:58:16;;;;;;;6.35;2.15;;;;;;;15.27;94.27;99560.50;4832944;29;20572;-81
2023/08/06 02:01:19;;;;;;;;;;;;;;;15.28;94.66;99557.75;4833596;29;20072;-81
2023/08/06 02:04:22;;;;;;;7.57;2.20;;;;;;;15.27;94.40;99542.06;4844689;29;19927;-81
2023/08/06 02:07:25;;;;;;;4.47;2.38;;;;;;;15.27;94.56;99540.28;4844454;29;20057;-81
2023/08/06 02:10:29;;;;;;;4.53;2.13;;;;;;;15.29;94.67;99542.78;4832108;29;20187;-82
2023/08/06 02:13:32;;;;;;;3.20;2.30;;;;;;;15.24;94.94;99534.44;4831991;29;20099;-82
2023/08/06 02:16:35;;;;;;;7.00;2.05;;;;;;;15.22;95.40;99542.50;4831909;29;20122;-81
2023/08/06 02:19:39;;;;;;;4.57;2.00;;;;;;;15.25;94.64;99536.09;4832383;29;20122;-81
2023/08/06 02:22:43;;;;;;;5.75;2.20;;;;;;;15.25;94.67;99541.38;4843692;29;20079;-81
2023/08/06 02:25:46;;;;;;;6.03;2.80;;;;;;;15.26;95.04;99537.78;4844158;29;20052;-80
2023/08/06 02:28:49;;;;;;;6.05;2.13;;;;;;;15.29;95.01;99532.25;4832499;29;20061;-81
2023/08/06 02:31:52;;;;;;;6.68;2.42;;;;;;;15.30;94.74;99526.00;4844256;29;20044;-81
2023/08/06 02:34:56;;;;;;;5.32;2.10;;;;;;;15.28;94.59;99522.66;4844245;29;20107;-81
2023/08/06 02:37:59;;;;;;;7.57;2.80;;;;;;;15.26;94.97;99522.81;4843391;29;20072;-81
2023/08/06 02:41:03;;;;;;;3.78;2.10;;;;;;;15.21;95.71;99518.91;4831974;29;20512;-81
2023/08/06 02:44:06;;;;;;;7.82;2.55;;;;;;;15.21;95.34;99511.84;4832337;29;20460;-81
2023/08/06 02:47:09;;;;;;;5.07;2.28;;;;;;;15.20;95.85;99507.56;4843965;29;20049;-81
2023/08/06 02:50:13;;;;;;;4.13;2.00;;;;;;;15.22;95.77;99507.41;4832580;29;20065;-81
2023/08/06 02:53:16;;;;;;;5.93;2.13;;;;;;;15.22;95.42;99508.25;4832628;29;20053;-81
2023/08/06 02:56:21;;;;;;;4.13;2.13;;;;;;;15.21;95.42;99498.69;4831579;29;20583;-81
2023/08/06 02:59:36;;;;;;;5.30;2.03;;;;;;;15.20;95.35;99496.19;4831562;29;20084;-81
2023/08/06 03:02:46;;;;;;;6.20;2.00;;;;;;;15.20;95.64;99490.94;4831926;29;20060;-81
2023/08/06 03:06:12;;;;;;;6.07;1.98;;;;;;;15.19;95.43;99483.97;4843087;29;20080;-81
2023/08/06 03:09:21;;;;;;;6.65;2.20;;;;;;;15.17;95.57;99485.94;4831982;29;20142;-80
2023/08/06 03:12:26;;;;;;;5.63;2.20;;;;;;;15.18;95.43;99482.31;4842545;29;20061;-80
2023/08/06 03:15:29;;;;;;;3.65;2.03;;;;;;;15.18;95.22;99482.31;4832117;29;20080;-79
2023/08/06 03:18:33;;;;;;;5.72;1.63;;;;;;;15.17;95.72;99485.94;4832030;29;20052;-81
2023/08/06 03:21:39;;;;;;;5.38;2.15;;;;;;;15.17;95.41;99483.28;4843334;29;20084;-80
2023/08/06 03:24:43;;;;;;;4.72;2.25;;;;;;;15.16;94.99;99473.75;4831051;29;20044;-80
2023/08/06 03:27:47;;;;;;;8.35;2.20;;;;;;;15.16;95.63;99469.31;4842525;29;20064;-82
2023/08/06 03:34:38;;;;;;;7.40;2.33;;;;;;;15.19;95.26;99460.28;4832195;29;20432;-80
2023/08/06 03:37:41;;;;;;;4.95;2.28;;;;;;;15.20;95.41;99459.31;4831588;29;20530;-84
2023/08/06 03:40:46;;;;;;;4.03;2.10;;;;;;;15.15;95.87;99464.16;4842776;29;20056;-80
2023/08/06 03:43:50;;;;;;;6.88;1.63;;;;;;;15.20;95.85;99461.97;4831473;29;20045;-81
2023/08/06 03:46:59;;;;;;;4.97;2.05;;;;;;;15.22;95.96;99457.38;4842729;29;20523;-79
2023/08/06 03:50:03;;;;;;;11.90;2.13;;;;;;;15.23;96.09;99453.78;4821044;29;20054;-80
2023/08/06 03:53:07;;;;;;;4.95;1.80;;;;;;;15.26;96.01;99448.25;4831543;29;20115;-80
2023/08/06 03:56:10;;;;;;;5.00;2.40;;;;;;;15.26;95.75;99442.97;4842383;29;20168;-82
2023/08/06 03:59:14;;;;;;;4.18;2.15;;;;;;;15.25;95.90;99443.94;4812004;29;20413;-83
2023/08/06 04:02:18;;;;;;;6.88;2.25;;;;;;;15.26;96.04;99442.97;4812800;29;20066;-80
2023/08/06 04:05:21;;;;;;;5.13;2.17;;;;;;;15.28;95.86;99446.28;4823754;29;20188;-81
2023/08/06 04:08:27;;;;;;;7.55;2.15;;;;;;;15.26;96.26;99448.25;4824503;29;20049;-81
2023/08/06 04:11:30;;;;;;;6.03;2.83;;;;;;;15.26;96.01;99443.81;4833323;29;20088;-82
2023/08/06 04:14:33;;;;;;;5.75;2.35;;;;;;;15.26;96.20;99448.25;4812806;29;20053;-82
2023/08/06 04:17:37;;;;;;;5.70;2.00;;;;;;;15.24;96.02;99450.19;4811877;29;20050;-82
2023/08/06 04:20:45;;;;;;;6.90;2.00;;;;;;;15.25;96.58;99452.69;4812270;29;20111;-82
2023/08/06 04:23:49;;;;;;;4.40;1.92;;;;;;;15.27;96.47;99449.91;4823581;29;20516;-82
2023/08/06 04:26:52;;;;;;;5.22;1.83;;;;;;;15.28;96.43;99441.03;4811429;29;20104;-82
2023/08/06 04:29:56;;;;;;;3.72;2.17;;;;;;;15.30;96.67;99449.63;4809928;29;20053;-81
2023/08/06 04:32:59;;;;;;;4.47;2.22;;;;;;;15.26;96.97;99448.25;4823433;29;20054;-81
2023/08/06 04:36:03;;;;;;;6.88;2.33;;;;;;;15.28;96.93;99447.16;4812097;29;20056;-81
2023/08/06 04:39:06;;;;;;;3.25;1.90;;;;;;;15.30;97.10;99444.38;4822577;29;20518;-82
2023/08/06 04:42:10;;;;;;;5.32;2.10;;;;;;;15.30;96.93;99447.00;4811275;29;20101;-82
2023/08/06 04:45:13;;;;;;;5.65;1.70;;;;;;;15.34;97.45;99440.47;4811759;29;20067;-82
2023/08/06 04:48:17;;;;;;;7.68;1.80;;;;;;;15.37;97.74;99440.22;4823528;29;20061;-83
2023/08/06 04:51:20;;;;;;;5.35;2.08;;;;;;;15.38;97.45;99434.00;4823171;29;20053;-82
2023/08/06 04:54:23;;;;;;;5.18;2.30;;;;;;;15.40;97.95;99449.66;4811891;29;20127;-82
2023/08/06 04:57:27;;;;;;;4.30;1.95;;;;;;;15.43;97.76;99442.28;4823441;29;20053;-81
2023/08/06 05:00:30;;;;;;;8.30;2.25;;;;;;;15.44;98.10;99440.50;4822611;29;20080;-82
2023/08/06 05:03:33;;;;;;;4.13;2.20;;;;;;;15.46;98.10;99434.13;4832231;29;20474;-82
2023/08/06 05:06:38;;;;;;;7.75;2.28;;;;;;;15.51;98.11;99437.19;4822761;29;20507;-81
2023/08/06 05:09:42;;;;;;;5.25;1.95;;;;;;;15.53;97.96;99435.22;4822938;29;20062;-82
2023/08/06 05:12:45;;;;;;;;;;;;;;;15.56;98.21;99434.94;4823097;29;20417;-80
2023/08/06 05:15:49;;;;;;;4.72;2.15;;;;;;;15.53;98.88;99440.50;4822631;29;19974;-80
2023/08/06 05:18:52;;;;;;;4.32;1.90;;;;;;;15.56;99.11;99450.75;4823241;29;20508;-80
2023/08/06 05:21:55;;;;;;;5.65;1.77;;;;;;;15.61;98.90;99439.00;4824197;29;20192;-82
2023/08/06 05:24:59;;;;;;;6.22;2.08;;;;;;;15.63;98.50;99435.22;4826934;29;20073;-81
2023/08/06 05:28:03;;;;;;;5.47;1.75;;;;;;;15.70;98.14;99439.03;4826071;29;20048;-81
2023/08/06 05:31:06;;;;;;;4.75;2.03;;;;;;;15.76;98.20;99440.25;4825472;29;20108;-81
2023/08/06 05:34:10;;;;;;;5.28;1.70;;;;;;;15.77;98.08;99447.19;4825353;29;20140;-82
2023/08/06 05:37:15;;;;;;;5.75;2.17;;;;;;;15.78;98.09;99438.31;4826002;29;20061;-82
2023/08/06 05:40:21;;;;;;;4.72;1.55;;;;;;;15.77;98.36;99441.94;4812781;29;20097;-82
2023/08/06 05:43:25;;;;;;;4.25;2.28;;;;;;;15.81;98.47;99441.50;4826299;29;20049;-82
2023/08/06 05:46:29;;;;;;;3.25;1.88;;;;;;;15.82;98.28;99444.94;4826184;29;20065;-82
2023/08/06 05:49:32;;;;;;;4.25;1.83;;;;;;;15.83;98.58;99445.81;4826021;29;20050;-77
2023/08/06 05:52:35;;;;;;;;;;;;;;;15.85;98.87;99439.41;4826066;29;20575;-82
2023/08/06 05:55:39;;;;;;;9.50;1.65;;;;;;;15.87;99.07;99442.75;4825454;29;19923;-82
2023/08/06 05:58:43;;;;;;;5.45;2.05;;;;;;;15.89;99.21;99448.72;4825711;29;20045;-85
2023/08/06 06:01:46;;;;;;;5.13;1.50;;;;;;;15.91;99.05;99452.03;4825120;29;20048;-80
2023/08/06 06:04:49;;;;;;;3.17;1.50;;;;;;;15.84;99.93;99448.28;4824153;29;20502;-82
2023/08/06 06:07:53;;;;;;;8.07;3.67;;;;;;;15.89;99.80;99446.09;4825354;29;20137;-75
2023/08/06 06:28:30;;;;;;;4.50;0.98;;;;;;;15.83;97.68;99457.19;5129614;27;20897;-73
2023/08/06 06:31:33;;;;;;;2.60;0.90;;;;;;;15.90;97.98;99463.56;5129761;27;20042;-71
2023/08/06 06:34:37;;;;;;;2.50;1.13;;;;;;;15.95;97.80;99455.22;5129177;27;20145;-72
2023/08/06 06:37:40;;;;;;;2.90;0.82;;;;;;;15.88;96.82;99454.13;5129175;27;20494;-71
2023/08/06 06:40:44;;;;;;;2.25;0.80;;;;;;;15.84;97.37;99468.56;5129750;27;20161;-72
2023/08/06 06:43:47;;;;;;;2.63;0.80;;;;;;;15.70;99.33;99467.19;5129694;27;20416;-74
2023/08/06 06:46:50;;;;;;;2.38;0.90;;;;;;;15.82;99.26;99460.78;5129615;27;20054;-75
2023/08/06 06:49:54;;;;;;;1.55;0.60;;;;;;;15.98;99.09;99458.38;5129644;27;20074;-75
2023/08/06 06:52:57;;;;;;;2.38;0.80;;;;;;;16.14;99.03;99462.25;5129646;27;20042;-75
2023/08/06 06:56:05;;;;;;;3.08;0.90;;;;;;;16.19;97.87;99463.50;5129181;27;20070;-75
2023/08/06 06:59:08;;;;;;;1.30;0.52;;;;;;;16.33;96.67;99461.38;5126808;27;20660;-74
2023/08/06 07:02:12;;;;;;;1.67;0.60;;;;;;;16.41;96.72;99462.34;5127973;27;20046;-74
2023/08/06 07:05:16;;;;;;;3.80;0.55;;;;;;;16.43;95.31;99460.41;5126437;27;20054;-74
2023/08/06 07:08:19;;;;;;;2.38;0.68;;;;;;;16.45;95.42;99461.06;5128103;27;20039;-74
2023/08/06 07:11:23;;;;;;;2.22;0.93;;;;;;;16.47;94.03;99461.78;5125586;27;20111;-75
2023/08/06 07:14:26;;;;;;;2.90;0.52;;;;;;;16.32;94.87;99454.47;5126073;27;20042;-74
2023/08/06 07:17:29;;;;;;;3.38;0.57;;;;;;;16.40;95.13;99458.06;5128478;27;20034;-74
2023/08/06 07:20:34;;;;;;;4.03;0.68;;;;;;;16.50;94.84;99455.38;5108174;28;20047;-82
2023/08/06 07:23:39;;;;;;;1.52;0.50;;;;;;;16.60;93.44;99453.53;5107860;28;20093;-80
2023/08/06 07:26:42;;;;;;;3.05;0.57;;;;;;;16.42;94.48;99458.72;5107347;28;20062;-82
2023/08/06 07:29:46;;;;;;;1.23;0.45;;;;;;;16.57;94.12;99455.63;5094532;28;20116;-82
2023/08/06 07:32:50;;;;;;;1.50;0.47;;;;;;;16.71;92.50;99457.78;5094867;28;20039;-80
2023/08/06 07:35:52;;;;;;;1.58;0.45;;;;;;;16.63;92.42;99462.97;5094273;28;20100;-76
2023/08/06 07:38:56;;;;;;;2.40;0.57;;;;;;;16.79;92.08;99457.94;5093620;28;20059;-78
2023/08/06 07:42:02;;;;;;;1.95;0.55;;;;;;;16.46;92.04;99469.81;5094035;28;20112;-79
2023/08/06 07:45:07;;;;;;;2.88;0.60;;;;;;;16.49;92.64;99462.44;5093961;28;20145;-77
2023/08/06 07:48:10;;;;;;;1.58;0.40;;;;;;;16.50;93.43;99472.03;5093370;28;20043;-75
2023/08/06 07:51:13;;;;;;;3.25;0.60;;;;;;;16.55;93.18;99466.31;5093848;28;20065;-74
2023/08/06 07:54:17;;;;;;;1.70;0.40;;;;;;;16.71;93.40;99463.88;5094329;28;20457;-74
2023/08/06 07:57:21;;;;;;;1.73;0.50;;;;;;;16.73;92.77;99469.03;5093701;28;20039;-73
2023/08/06 08:00:24;;;;;;;1.70;0.30;;;;;;;16.54;90.04;99469.13;5093633;28;20082;-72
2023/08/06 08:03:27;;;;;;;1.50;0.30;;;;;;;16.48;91.83;99463.44;5093673;28;20114;-74
2023/08/06 08:06:30;;;;;;;1.83;0.40;;;;;;;16.69;93.37;99470.31;5093794;28;20061;-75
2023/08/06 08:09:34;;;;;;;0.93;0.30;;;;;;;16.68;89.11;99460.72;5094102;28;20105;-73
2023/08/06 08:12:37;;;;;;;1.65;0.40;;;;;;;16.40;89.95;99463.34;5093862;28;20050;-77
2023/08/06 08:15:41;;;;;;;3.35;0.50;;;;;;;16.25;90.86;99454.19;5093703;28;20469;-77
2023/08/06 08:18:44;;;;;;;1.80;0.43;;;;;;;16.27;90.17;99453.09;5093626;28;20123;-79
2023/08/06 08:21:48;;;;;;;1.30;0.40;;;;;;;16.22;91.36;99457.13;5093749;28;20473;-76
2023/08/06 08:25:17;;;;;;;1.00;0.22;;;;;;;16.37;89.30;99455.69;5093362;28;20043;-87
2023/08/06 08:28:21;;;;;;;1.17;0.30;;;;;;;16.42;88.50;99448.16;5092861;28;20054;-73
2023/08/06 08:31:24;;;;;;;1.60;0.50;;;;;;;16.67;89.47;99459.06;5092533;28;20566;-73
2023/08/06 08:39:37;;;;;;;1.92;0.75;;;;;;;16.91;88.18;99453.28;5089498;28;20101;-72
2023/08/06 08:42:41;;;;;;;1.75;0.43;;;;;;;17.05;86.92;99438.75;5091909;28;20082;-72
2023/08/06 08:45:49;;;;;;;1.35;0.40;;;;;;;17.22;86.64;99451.16;5092514;28;20046;-73
2023/08/06 08:48:57;;;;;;;1.10;0.38;;;;;;;17.32;84.64;99445.81;5092776;28;20511;-77
2023/08/06 08:52:06;;;;;;;0.90;0.20;;;;;;;17.24;83.35;99443.91;5092965;28;20047;-77
2023/08/06 08:55:10;;;;;;;0.95;0.30;;;;;;;17.37;82.58;99443.56;5092835;28;20074;-78
2023/08/06 08:58:15;;;;;;;1.90;0.68;;;;;;;17.37;80.06;99439.09;5093072;28;20401;-76
2023/08/06 09:01:20;;;;;;;2.45;0.50;;;;;;;17.51;79.66;99443.00;5092838;28;20082;-75
2023/08/06 09:04:24;;;;;;;4.47;1.17;;;;;;;17.47;79.27;99449.59;5092799;28;20511;-74
2023/08/06 09:07:29;;;;;;;1.83;0.32;;;;;;;17.35;79.02;99446.34;5092594;28;20405;-73
2023/08/06 09:10:33;;;;;;;0.93;0.25;;;;;;;17.21;79.72;99454.78;5092982;28;20093;-74
2023/08/06 09:13:37;;;;;;;1.50;0.32;;;;;;;17.16;78.30;99463.13;5092673;28;20611;-74
2023/08/06 09:16:41;;;;;;;2.33;0.32;;;;;;;17.39;80.32;99457.47;5091557;28;20135;-75
2023/08/06 09:19:48;;;;;;;1.17;0.30;;;;;;;17.80;78.23;99465.78;5092559;28;20507;-74
2023/08/06 09:22:53;;;;;;;1.20;0.20;;;;;;;17.75;75.61;99468.03;5092344;28;20508;-77
2023/08/06 09:25:57;;;;;;;1.45;0.30;;;;;;;17.50;74.93;99459.03;5092249;28;20043;-73
2023/08/06 09:29:01;;;;;;;1.42;0.28;;;;;;;17.53;76.20;99456.09;5089841;28;20046;-75
2023/08/06 09:32:05;;;;;;;0.38;0.10;;;;;;;17.40;77.00;99459.13;5090851;28;20047;-72
2023/08/06 09:35:16;;;;;;;0.90;0.20;;;;;;;17.27;77.61;99454.19;5091610;28;20507;-74
2023/08/06 09:38:20;;;;;;;1.88;0.20;;;;;;;17.23;77.83;99455.47;5091469;28;20043;-74
2023/08/06 09:41:28;;;;;;;1.58;0.40;;;;;;;17.54;78.68;99457.75;5092066;28;20046;-73
2023/08/06 09:44:33;;;;;;;2.50;0.30;;;;;;;17.92;76.11;99447.88;5092124;28;20079;-73
2023/08/06 09:47:36;;;;;;;1.52;0.30;;;;;;;18.18;75.21;99437.28;5091909;28;20115;-72
2023/08/06 09:50:41;;;;;;;1.13;0.30;;;;;;;18.34;74.73;99440.88;5091678;28;20066;-72
2023/08/06 09:53:48;;;;;;;1.65;0.40;;;;;;;18.27;73.88;99441.66;5092243;28;20059;-72
2023/08/06 09:56:54;;;;;;;2.10;0.50;;;;;;;18.24;73.73;99455.19;5092044;28;20496;-72
2023/08/06 10:00:01;;;;;;;1.45;0.40;;;;;;;18.04;74.77;99459.88;5092236;28;20175;-71
2023/08/06 10:03:06;;;;;;;2.25;0.40;;;;;;;18.06;76.87;99452.59;5092145;28;20218;-71
2023/08/06 10:06:10;;;;;;;1.30;0.50;;;;;;;18.05;75.77;99459.69;5091800;28;20062;-69
2023/08/06 10:09:15;;;;;;;1.73;0.40;;;;;;;18.12;75.96;99459.91;5090714;28;20042;-70
2023/08/06 10:12:19;;;;;;;1.40;0.43;;;;;;;18.22;76.60;99460.66;5091679;28;20043;-71
2023/08/06 10:15:28;;;;;;;1.48;0.30;;;;;;;18.16;74.78;99466.56;5091583;28;20105;-71
2023/08/06 10:18:32;;;;;;;1.27;0.40;;;;;;;18.15;74.88;99464.88;5091497;28;20117;-72
2023/08/06 10:21:38;;;;;;;1.52;0.50;;;;;;;18.07;74.06;99462.19;5091156;28;20105;-74
2023/08/06 10:24:48;;;;;;;1.13;0.30;;;;;;;17.61;71.68;99467.59;5090129;28;20039;-74
2023/08/06 10:27:53;;;;;;;2.22;0.30;;;;;;;17.34;72.56;99470.28;5089939;28;20135;-74
2023/08/06 10:30:58;;;;;;;1.30;0.30;;;;;;;17.14;74.81;99483.59;5090829;28;20091;-80
2023/08/06 10:34:46;;;;;;;1.42;0.43;;;;;;;16.98;77.06;99493.16;5090644;28;20461;-85
2023/08/06 10:37:49;;;;;;;0.85;0.30;;;;;;;16.65;79.59;99498.78;5091319;28;20574;-82
2023/08/06 10:40:52;;;;;;;1.48;0.38;;;;;;;16.69;80.07;99508.09;5091416;28;20439;-84
2023/08/06 10:44:09;;;;;;;1.60;0.60;;;;;;;16.70;81.34;99522.13;5100053;28;20569;-79
2023/08/06 10:47:28;;;;;;;1.63;0.25;;;;;;;16.29;83.88;99518.88;5088467;28;20097;-78
2023/08/06 10:50:32;;;;;;;1.45;0.30;;;;;;;16.35;86.02;99533.31;5088346;28;20044;-79
2023/08/06 10:53:36;;;;;;;1.08;0.20;;;;;;;16.30;86.30;99544.28;5090534;28;20035;-85
2023/08/06 10:56:42;;;;;;;1.13;0.20;;;;;;;16.01;85.82;99560.94;5072636;28;20038;-81
2023/08/06 10:59:45;;;;;;;0.38;0.20;;;;;;;15.68;89.34;99564.81;5090578;28;20058;-79
2023/08/06 11:02:49;;;;;;;1.92;0.30;;;;;;;15.73;89.24;99559.13;5088241;28;20062;-82
2023/08/06 11:05:52;;;;;;;0.73;0.10;;;;;;;15.43;90.25;99571.38;5094157;28;20457;-82
2023/08/06 11:08:56;;;;;;;0.90;0.20;;;;;;;15.50;91.32;99588.31;5094632;28;20062;-82
2023/08/06 11:11:59;;;;;;;0.80;0.30;;;;;;;15.40;90.75;99581.34;5094222;28;20042;-80
2023/08/06 11:15:04;;;;;;;0.38;0.17;;;;;;;15.64;91.46;99594.19;5094657;28;20043;-82
2023/08/06 11:18:09;;;;;;;1.73;0.30;;;;;;;15.50;89.16;99608.56;5093832;28;20069;-81
2023/08/06 11:21:12;;;;;;;1.13;0.50;;;;;;;15.52;88.73;99612.72;5092186;28;20102;-82
2023/08/06 11:24:15;;;;;;;1.08;0.40;;;;;;;15.38;86.12;99613.09;5091346;28;20492;-79
2023/08/06 11:27:20;;;;;;;1.33;0.60;;;;;;;15.53;86.58;99614.38;5092364;28;20108;-75
2023/08/06 11:30:23;;;;;;;0.82;0.30;;;;;;;15.20;85.90;99623.41;5074338;28;20055;-81
2023/08/06 11:33:27;;;;;;;1.98;0.50;;;;;;;15.28;87.05;99638.53;5096429;28;20048;-77
2023/08/06 11:36:32;;;;;;;2.55;0.30;;;;;;;15.27;85.46;99645.63;5088904;28;20038;-82
2023/08/06 11:39:37;;;;;;;1.80;0.45;;;;;;;15.15;85.01;99636.13;5091935;28;20054;-78
2023/08/06 11:42:42;;;;;;;3.08;0.75;;;;;;;15.18;84.45;99637.69;5090700;28;20131;-76
2023/08/06 11:45:46;;;;;;;1.40;0.45;;;;;;;15.34;85.23;99657.28;5092444;28;20534;-80
2023/08/06 11:49:46;;;;;;;0.88;0.28;;;;;;;15.19;84.03;99652.50;5092344;28;20055;-75
2023/08/06 11:53:00;;;;;;;2.25;0.70;;;;;;;15.24;83.03;99659.03;5056128;28;20063;-76
2023/08/06 11:56:03;;;;;;;0.88;0.30;;;;;;;15.32;82.73;99659.25;5092209;28;20135;-76
2023/08/06 11:59:08;;;;;;;1.45;0.50;;;;;;;15.41;82.12;99673.44;5090452;28;20144;-75
2023/08/06 12:02:11;;;;;;;2.50;0.70;;;;;;;15.31;82.86;99667.25;5090691;28;20097;-77
2023/08/06 12:05:15;;;;;;;1.63;0.38;;;;;;;15.19;83.55;99669.16;5091451;28;20221;-81
2023/08/06 12:08:19;;;;;;;1.88;0.60;;;;;;;15.19;82.07;99689.38;5093827;28;20089;-81
2023/08/06 12:11:23;;;;;;;2.80;0.50;;;;;;;15.29;82.07;99682.38;5093116;28;20054;-76
2023/08/06 12:14:27;;;;;;;2.30;0.80;;;;;;;15.39;81.68;99685.06;5093701;28;20515;-81
2023/08/06 12:17:30;;;;;;;2.17;0.60;;;;;;;15.37;81.38;99676.44;5093351;28;20046;-80
2023/08/06 12:20:35;;;;;;;2.13;0.55;;;;;;;15.21;81.60;99697.97;5093760;28;20055;-76
2023/08/06 12:23:39;;;;;;;2.30;0.70;;;;;;;15.47;83.37;99709.75;5093941;28;20082;-72
2023/08/06 12:26:43;;;;;;;1.92;0.60;;;;;;;15.34;82.92;99698.59;5093372;28;20039;-72
2023/08/06 12:29:48;;;;;;;2.58;0.55;;;;;;;15.42;83.35;99706.69;5093988;28;20135;-72
2023/08/06 12:32:52;;;;;;;2.83;0.95;;;;;;;15.29;83.59;99700.81;5092352;28;20050;-75
2023/08/06 12:35:55;;;;;;;1.48;0.40;;;;;;;15.56;84.31;99714.25;5093264;28;20125;-77
2023/08/06 12:39:02;;;;;;;2.28;0.50;;;;;;;15.43;84.83;99718.91;5093505;28;20082;-78
2023/08/06 12:42:06;;;;;;;0.98;0.30;;;;;;;15.28;85.33;99726.31;5116018;27;20518;-79
2023/08/06 12:45:10;;;;;;;1.83;0.50;;;;;;;15.27;86.58;99723.81;5093030;28;20050;-77
2023/08/06 12:48:15;;;;;;;2.33;0.40;;;;;;;15.39;86.43;99721.94;5093008;28;20106;-81
2023/08/06 12:51:22;;;;;;;2.35;0.50;;;;;;;15.35;84.66;99739.81;5093564;28;20547;-81
2023/08/06 12:54:27;;;;;;;2.42;0.57;;;;;;;15.44;84.76;99735.53;5115901;27;20460;-80
2023/08/06 12:57:34;;;;;;;3.38;1.85;;;;;;;15.48;85.65;99740.44;5093128;28;20069;-81
2023/08/06 13:00:38;;;;;;;3.50;1.38;;;;;;;15.53;84.07;99746.13;5092980;28;20116;-83
2023/08/06 13:03:41;;;;;;;1.10;0.50;;;;;;;15.51;84.66;99753.34;5092782;28;20043;-81
2023/08/06 13:06:48;;;;;;;2.97;0.63;;;;;;;15.43;85.05;99753.16;5092903;28;20113;-82
2023/08/06 13:09:51;;;;;;;2.70;0.40;;;;;;;15.62;86.25;99756.84;5092632;28;20091;-81
2023/08/06 13:12:55;;;;;;;1.60;0.35;;;;;;;15.50;84.99;99764.81;5091822;28;20046;-83
2023/08/06 13:15:58;;;;;;;2.88;0.30;;;;;;;15.52;86.45;99759.44;5103134;28;20051;-83
2023/08/06 13:19:02;;;;;;;2.03;0.95;;;;;;;15.56;87.05;99763.47;5092182;28;20043;-84
2023/08/06 13:22:08;;;;;;;1.73;0.60;;;;;;;15.46;86.32;99779.22;5092019;28;20112;-84
2023/08/06 13:25:14;;;;;;;2.20;0.45;;;;;;;15.30;87.06;99777.03;5092910;28;20074;-84
2023/08/06 13:28:19;;;;;;;2.03;0.40;;;;;;;15.31;87.27;99767.34;5091985;28;20181;-83
2023/08/06 13:31:22;;;;;;;1.65;0.40;;;;;;;15.17;88.33;99780.84;5092406;28;20087;-84
2023/08/06 13:34:26;;;;;;;2.47;0.50;;;;;;;15.08;89.16;99772.72;5092365;28;20046;-83
2023/08/06 13:37:31;;;;;;;2.30;0.40;;;;;;;15.42;89.31;99772.56;5091450;28;20071;-80
2023/08/06 13:40:35;;;;;;;2.67;0.30;;;;;;;15.62;87.47;99780.56;5090191;28;20073;-80
2023/08/06 13:43:39;;;;;;;0.90;0.32;;;;;;;15.53;86.79;99788.28;5092050;28;20463;-80
2023/08/06 13:46:43;;;;;;;1.15;0.30;;;;;;;15.62;86.59;99780.56;5092683;28;20066;-80
2023/08/06 13:49:47;;;;;;;2.35;0.65;;;;;;;15.62;86.76;99791.09;5091908;28;20066;-81
2023/08/06 13:52:50;;;;;;;0.98;0.40;;;;;;;15.52;86.02;99786.63;5102928;28;20096;-81
2023/08/06 13:56:06;;;;;;;1.55;0.45;;;;;;;15.50;86.91;99782.44;5092422;28;20495;-81
2023/08/06 13:59:15;;;;;;;1.90;0.38;;;;;;;15.66;86.92;99788.06;5091349;28;20071;-80
2023/08/06 14:02:18;;;;;;;5.68;0.40;;;;;;;15.65;86.67;99785.59;5092639;28;20086;-80
2023/08/06 14:05:21;;;;;;;1.65;0.28;;;;;;;15.63;86.92;99785.69;5091208;28;20494;-79
2023/08/06 14:08:25;;;;;;;1.75;0.47;;;;;;;15.48;86.62;99798.38;5091603;28;20093;-80
2023/08/06 14:11:30;;;;;;;1.58;0.38;;;;;;;15.52;87.00;99797.16;5091932;28;20050;-80
2023/08/06 14:14:36;;;;;;;3.08;0.40;;;;;;;15.49;87.95;99797.41;5102598;28;20039;-77
2023/08/06 14:17:40;;;;;;;2.08;0.43;;;;;;;15.64;88.00;99810.28;5090513;28;20082;-84
2023/08/06 14:20:44;;;;;;;1.77;0.43;;;;;;;15.70;88.02;99810.63;5091660;28;20050;-80
2023/08/06 14:23:48;;;;;;;1.20;0.40;;;;;;;15.61;88.27;99810.53;5091970;28;20042;-79
2023/08/06 14:26:51;;;;;;;1.73;0.50;;;;;;;15.66;89.16;99819.69;5090837;28;20047;-80
2023/08/06 14:29:54;;;;;;;;;;;;;;;15.74;88.89;99827.00;5092052;28;20043;-80
2023/08/06 14:33:00;;;;;;;;;;;;;;;15.74;87.40;99840.19;5092260;28;20356;-81
2023/08/06 14:36:04;;;;;;;1.33;0.35;;;;;;;15.57;85.65;99842.41;5091790;28;19965;-81
2023/08/06 14:39:07;;;;;;;1.42;0.40;;;;;;;15.43;85.03;99845.34;5094270;28;20093;-82
2023/08/06 14:42:10;;;;;;;1.45;0.73;;;;;;;15.40;85.31;99850.88;5095817;28;20043;-79
2023/08/06 14:45:14;;;;;;;1.05;0.30;;;;;;;15.40;85.52;99845.59;5095499;28;20550;-79
2023/08/06 14:48:17;;;;;;;1.90;0.75;;;;;;;15.28;83.45;99851.88;5095234;28;20043;-78
2023/08/06 14:51:21;;;;;;;1.65;0.35;;;;;;;15.19;83.29;99852.63;5095562;28;20171;-82
2023/08/06 14:54:26;;;;;;;1.58;0.40;;;;;;;15.12;84.15;99857.56;5094580;28;20052;-85
2023/08/06 14:57:31;;;;;;;4.53;1.77;;;;;;;15.13;83.63;99854.00;5096002;28;20039;-78